Time;durP1;ratioP1;P1;durP2;ratioP2;P2;SDS_P1;SDS_P2;PMS_P1;PMS_P2;Temp;Humidity;BMP_temperature;BMP_pressure;BME280_temperature;BME280_humidity;BME280_pressure;Samples;Min_cycle;Max_cycle;Signal;HPM_P1;HPM_P2
2020/12/01 00:01:11;;;;;;;0.10;0.10;;;;;;;-1.24;100.00;101734.28;1791338;78;21138;-52
2020/12/01 00:03:40;;;;;;;0.08;0.08;;;;;;;-1.24;100.00;101740.16;1734482;81;21166;-53
2020/12/01 00:06:08;;;;;;;0.45;0.45;;;;;;;-1.25;100.00;101734.47;1741341;81;21114;-52
2020/12/01 00:08:36;;;;;;;0.25;0.25;;;;;;;-1.24;100.00;101733.45;1733189;82;21169;-53
2020/12/01 00:11:05;;;;;;;1.82;1.67;;;;;;;-1.24;100.00;101730.77;1733125;81;21366;-53
2020/12/01 00:13:33;;;;;;;0.45;0.45;;;;;;;-1.25;100.00;101732.62;1791345;80;21126;-53
2020/12/01 00:16:01;;;;;;;0.30;0.30;;;;;;;-1.25;100.00;101733.12;1791470;78;21136;-53
2020/12/01 00:18:29;;;;;;;0.65;0.65;;;;;;;-1.24;100.00;101729.42;1726914;82;21141;-53
2020/12/01 00:20:56;;;;;;;0.30;0.30;;;;;;;-1.23;100.00;101737.31;1726802;81;21165;-52
2020/12/01 00:23:24;;;;;;;0.10;0.10;;;;;;;-1.24;100.00;101733.45;1726851;83;21379;-53
2020/12/01 00:25:52;;;;;;;0.25;0.25;;;;;;;-1.26;100.00;101734.98;1726817;81;21150;-53
2020/12/01 00:28:20;;;;;;;0.23;0.23;;;;;;;-1.25;100.00;101733.12;1726832;83;21194;-52
2020/12/01 00:30:47;;;;;;;0.30;0.30;;;;;;;-1.25;100.00;101730.45;1726703;81;21129;-52
2020/12/01 00:33:14;;;;;;;0.10;0.10;;;;;;;-1.26;100.00;101732.78;1727010;83;22020;-52
2020/12/01 00:35:42;;;;;;;0.88;0.40;;;;;;;-1.26;100.00;101729.62;1726977;81;21146;-52
2020/12/01 00:38:10;;;;;;;0.08;0.08;;;;;;;-1.24;100.00;101733.45;1721927;83;21241;-53
2020/12/01 00:40:38;;;;;;;0.15;0.15;;;;;;;-1.26;100.00;101727.41;1753680;81;21142;-53
2020/12/01 00:43:05;;;;;;;0.10;0.10;;;;;;;-1.26;100.00;101727.41;1733172;82;21137;-53
2020/12/01 00:45:33;;;;;;;0.00;0.00;;;;;;;-1.27;100.00;101725.75;1773785;80;21110;-53
2020/12/01 00:48:00;;;;;;;0.10;0.10;;;;;;;-1.27;100.00;101724.41;1785462;80;21576;-53
2020/12/01 00:50:28;;;;;;;0.10;0.10;;;;;;;-1.30;100.00;101721.56;1791494;78;21130;-53
2020/12/01 00:52:55;;;;;;;0.10;0.10;;;;;;;-1.31;100.00;101727.44;1791357;80;21560;-53
2020/12/01 00:55:23;;;;;;;0.15;0.15;;;;;;;-1.30;100.00;101725.59;1727157;81;21438;-52
2020/12/01 00:57:51;;;;;;;0.00;0.00;;;;;;;-1.30;100.00;101726.42;1727424;83;21172;-52
2020/12/01 01:00:23;;;;;;;0.00;0.00;;;;;;;-1.31;100.00;101723.41;1727325;81;21126;-52
2020/12/01 01:03:02;;;;;;;0.42;0.42;;;;;;;-1.32;100.00;101720.38;1726340;83;21470;-52
2020/12/01 01:05:29;;;;;;;0.37;0.37;;;;;;;-1.31;100.00;101716.71;1723928;81;21134;-53
2020/12/01 01:07:57;;;;;;;0.10;0.10;;;;;;;-1.32;100.00;101715.02;1785490;80;21512;-52
2020/12/01 01:10:29;;;;;;;0.30;0.15;;;;;;;-1.33;100.00;101716.04;1791678;79;21480;-52
2020/12/01 01:12:56;;;;;;;0.10;0.10;;;;;;;-1.33;100.00;101720.58;1793946;79;21109;-52
2020/12/01 01:15:31;;;;;;;0.25;0.23;;;;;;;-1.33;100.00;101718.72;1792584;79;21161;-52
2020/12/01 01:17:59;;;;;;;0.47;0.47;;;;;;;-1.34;100.00;101721.56;1791221;80;21141;-52
2020/12/01 01:20:27;;;;;;;0.10;0.10;;;;;;;-1.35;100.00;101714.53;1791290;80;21138;-52
2020/12/01 01:22:56;;;;;;;0.70;0.70;;;;;;;-1.36;100.00;101716.39;1763506;81;21158;-52
2020/12/01 01:25:24;;;;;;;0.42;0.42;;;;;;;-1.34;100.00;101713.52;1763397;79;21138;-52
2020/12/01 01:27:51;;;;;;;0.10;0.10;;;;;;;-1.35;100.00;101718.05;1791146;80;21583;-52
2020/12/01 01:30:22;;;;;;;0.10;0.10;;;;;;;-1.36;100.00;101723.57;1791193;78;21174;-52
2020/12/01 01:32:49;;;;;;;0.20;0.15;;;;;;;-1.37;100.00;101713.86;1763468;81;21649;-52
2020/12/01 01:35:18;;;;;;;0.23;0.23;;;;;;;-1.38;100.00;101725.09;1763606;80;21115;-53
2020/12/01 01:37:45;;;;;;;0.00;0.00;;;;;;;-1.39;100.00;101720.72;1789989;80;21102;-52
2020/12/01 01:40:22;;;;;;;0.10;0.10;;;;;;;-1.38;100.00;101715.72;1772496;80;21150;-52
2020/12/01 01:42:50;;;;;;;0.00;0.00;;;;;;;-1.36;100.00;101715.52;1754270;81;21199;-52
2020/12/01 01:45:47;;;;;;;0.10;0.10;;;;;;;-1.38;100.00;101715.72;1788184;78;21110;-52
2020/12/01 01:48:27;;;;;;;1.95;0.57;;;;;;;-1.37;100.00;101707.16;1763476;79;21146;-52
2020/12/01 01:51:09;;;;;;;2.20;0.45;;;;;;;-1.39;100.00;101699.27;1763729;79;21165;-52
2020/12/01 01:53:41;;;;;;;0.70;0.70;;;;;;;-1.38;100.00;101702.31;1732439;80;21422;-52
2020/12/01 01:56:09;;;;;;;0.10;0.10;;;;;;;-1.39;100.00;101692.56;1791670;80;21754;-52
2020/12/01 01:58:39;;;;;;;0.00;0.00;;;;;;;-1.38;100.00;101695.60;1763694;81;21394;-52
2020/12/01 02:01:12;;;;;;;0.17;0.17;;;;;;;-1.38;100.00;101691.58;1791545;78;21141;-52
2020/12/01 02:03:44;;;;;;;0.23;0.23;;;;;;;-1.38;100.00;101687.56;1785262;79;21601;-52
2020/12/01 02:06:44;;;;;;;0.00;0.00;;;;;;;-1.39;100.00;101692.56;1758404;80;21123;-52
2020/12/01 02:09:29;;;;;;;0.10;0.10;;;;;;;-1.37;100.00;101690.56;1751717;81;20999;-52
2020/12/01 02:11:58;;;;;;;0.08;0.08;;;;;;;-1.38;100.00;101691.58;1761599;80;21115;-52
2020/12/01 02:14:35;;;;;;;0.80;0.80;;;;;;;-1.39;100.00;101685.03;1776841;80;21130;-52
2020/12/01 02:17:22;;;;;;;0.15;0.15;;;;;;;-1.40;100.00;101684.20;1777149;80;21126;-52
2020/12/01 02:19:50;;;;;;;0.62;0.62;;;;;;;-1.39;100.00;101693.91;1777156;80;21180;-52
2020/12/01 02:22:20;;;;;;;0.10;0.10;;;;;;;-1.40;100.00;101690.91;1776886;80;21158;-52
2020/12/01 02:24:48;;;;;;;0.57;0.57;;;;;;;-1.40;100.00;101689.56;1781446;80;21995;-52
2020/12/01 02:27:18;;;;;;;1.22;1.12;;;;;;;-1.38;100.00;101682.70;1781654;80;21123;-52
2020/12/01 02:29:48;;;;;;;1.12;0.20;;;;;;;-1.39;100.00;101695.25;1781811;80;21154;-52
2020/12/01 02:32:15;;;;;;;1.25;0.20;;;;;;;-1.38;100.00;101704.16;1781774;80;21119;-52
2020/12/01 02:34:45;;;;;;;0.00;0.00;;;;;;;-1.39;100.00;101700.61;1781821;80;21155;-52
2020/12/01 02:37:17;;;;;;;0.47;0.47;;;;;;;-1.40;100.00;101696.27;1782066;80;21139;-52
2020/12/01 02:39:45;;;;;;;0.00;0.00;;;;;;;-1.40;100.00;101695.44;1781875;80;21549;-51
2020/12/01 02:42:16;;;;;;;0.28;0.23;;;;;;;-1.39;100.00;101704.64;1781972;80;21123;-52
2020/12/01 02:44:43;;;;;;;0.05;0.05;;;;;;;-1.37;100.00;101702.62;1783702;78;21139;-52
2020/12/01 02:47:11;;;;;;;0.33;0.33;;;;;;;-1.37;100.00;101696.44;1787358;80;21133;-52
2020/12/01 02:49:38;;;;;;;0.30;0.30;;;;;;;-1.39;100.00;101695.25;1787871;80;21126;-53
2020/12/01 02:52:07;;;;;;;0.00;0.00;;;;;;;-1.38;100.00;101696.95;1787896;80;21536;-52
2020/12/01 02:54:35;;;;;;;0.00;0.00;;;;;;;-1.38;100.00;101699.62;1787812;80;21229;-52
2020/12/01 02:57:03;;;;;;;0.10;0.10;;;;;;;-1.38;100.00;101704.98;1787948;80;21137;-52
2020/12/01 02:59:31;;;;;;;0.00;0.00;;;;;;;-1.39;100.00;101699.78;1787837;80;21162;-52
2020/12/01 03:01:58;;;;;;;0.00;0.00;;;;;;;-1.39;100.00;101704.64;1787937;80;21455;-52
2020/12/01 03:04:26;;;;;;;0.10;0.10;;;;;;;-1.39;100.00;101707.31;1749262;81;21143;-52
2020/12/01 03:06:53;;;;;;;0.68;0.15;;;;;;;-1.38;100.00;101704.98;1755736;81;21175;-51
2020/12/01 03:09:20;;;;;;;0.75;0.75;;;;;;;-1.38;100.00;101705.50;1785168;80;21616;-52
2020/12/01 03:11:49;;;;;;;0.03;0.03;;;;;;;-1.39;100.00;101708.66;1784989;80;21131;-52
2020/12/01 03:14:17;;;;;;;0.23;0.23;;;;;;;-1.40;100.00;101706.16;1785048;80;21119;-52
2020/12/01 03:16:50;;;;;;;0.08;0.08;;;;;;;-1.40;100.00;101709.67;1785061;80;21124;-52
2020/12/01 03:19:19;;;;;;;0.53;0.53;;;;;;;-1.39;100.00;101707.31;1785703;80;21419;-52
2020/12/01 03:21:46;;;;;;;0.08;0.08;;;;;;;-1.38;100.00;101713.03;1772365;80;21456;-51
2020/12/01 03:24:14;;;;;;;0.00;0.00;;;;;;;-1.39;100.00;101711.34;1785095;80;21553;-51
2020/12/01 03:26:43;;;;;;;0.10;0.10;;;;;;;-1.39;100.00;101699.78;1785338;80;21095;-51
2020/12/01 03:29:10;;;;;;;0.00;0.00;;;;;;;-1.39;100.00;101711.34;1785178;80;21122;-52
2020/12/01 03:31:38;;;;;;;0.10;0.10;;;;;;;-1.38;100.00;101709.02;1785207;80;21111;-51
2020/12/01 03:34:06;;;;;;;0.00;0.00;;;;;;;-1.38;100.00;101705.50;1785189;80;21569;-52
2020/12/01 03:36:33;;;;;;;0.10;0.10;;;;;;;-1.38;100.00;101713.03;1785318;80;21131;-52
2020/12/01 03:39:00;;;;;;;0.13;0.13;;;;;;;-1.36;100.00;101723.57;1785216;80;21151;-52
2020/12/01 03:41:28;;;;;;;0.00;0.00;;;;;;;-1.35;100.00;101716.70;1785447;80;21119;-52
2020/12/01 03:43:55;;;;;;;0.10;0.10;;;;;;;-1.35;100.00;101719.39;1785990;80;21154;-51
2020/12/01 03:46:23;;;;;;;0.80;0.42;;;;;;;-1.35;100.00;101722.58;1791675;78;21169;-52
2020/12/01 03:48:50;;;;;;;0.57;0.57;;;;;;;-1.34;100.00;101715.69;1791769;80;21015;-52
2020/12/01 03:51:17;;;;;;;0.28;0.28;;;;;;;-1.33;100.00;101721.41;1791690;78;21173;-52
2020/12/01 03:53:45;;;;;;;0.00;0.00;;;;;;;-1.35;100.00;101720.73;1763456;81;21516;-51
2020/12/01 03:56:12;;;;;;;0.00;0.00;;;;;;;-1.33;100.00;101716.04;1763755;79;21146;-51
2020/12/01 03:58:40;;;;;;;0.00;0.00;;;;;;;-1.32;100.00;101716.36;1791645;79;21271;-52
2020/12/01 04:01:08;;;;;;;0.30;0.30;;;;;;;-1.33;100.00;101718.72;1791608;78;20987;-51
2020/12/01 04:03:35;;;;;;;0.37;0.37;;;;;;;-1.32;100.00;101720.38;1791636;80;21142;-51
2020/12/01 04:06:03;;;;;;;0.00;0.00;;;;;;;-1.30;100.00;101729.10;1791676;78;21458;-52
2020/12/01 04:08:31;;;;;;;0.42;0.35;;;;;;;-1.31;100.00;101726.09;1791357;80;21390;-52
2020/12/01 04:13:45;;;;;;;0.10;0.10;;;;;;;-1.26;100.00;101712.66;1887869;76;29039;-50
2020/12/01 04:16:13;;;;;;;0.08;0.08;;;;;;;-1.30;100.00;101717.03;1855370;77;21221;-51
2020/12/01 04:18:41;;;;;;;0.95;0.55;;;;;;;-1.30;100.00;101717.03;1784894;80;21134;-51
2020/12/01 04:21:09;;;;;;;0.00;0.00;;;;;;;-1.30;100.00;101714.86;1785007;80;21613;-51
2020/12/01 04:23:36;;;;;;;2.37;0.30;;;;;;;-1.30;100.00;101713.02;1785059;80;21601;-52
2020/12/01 04:26:04;;;;;;;0.20;0.20;;;;;;;-1.28;100.00;101710.17;1785076;80;21561;-51
2020/12/01 04:28:32;;;;;;;0.23;0.23;;;;;;;-1.28;100.00;101719.56;1783993;80;21609;-51
2020/12/01 04:30:59;;;;;;;0.20;0.20;;;;;;;-1.28;100.00;101721.41;1753970;81;21148;-51
2020/12/01 04:33:27;;;;;;;0.00;0.00;;;;;;;-1.28;100.00;101724.92;1753914;81;21661;-51
2020/12/01 04:35:55;;;;;;;0.57;0.57;;;;;;;-1.30;100.00;101715.69;1771876;80;21099;-51
2020/12/01 04:38:23;;;;;;;0.00;0.00;;;;;;;-1.28;100.00;101717.38;1771720;80;21131;-51
2020/12/01 04:40:50;;;;;;;0.20;0.20;;;;;;;-1.30;100.00;101718.37;1768790;81;21115;-52
2020/12/01 04:43:44;;;;;;;0.17;0.17;;;;;;;-1.28;100.00;101720.89;1738713;81;21151;-50
2020/12/01 04:46:20;;;;;;;1.42;1.02;;;;;;;-1.30;100.00;101715.69;1769371;79;21170;-50
2020/12/01 04:49:04;;;;;;;0.00;0.00;;;;;;;-1.30;100.00;101718.37;1754634;80;21111;-52
2020/12/01 04:52:13;;;;;;;0.37;0.35;;;;;;;-1.29;100.00;101721.88;1753916;81;21130;-51
2020/12/01 04:55:21;;;;;;;1.60;0.62;;;;;;;-1.28;100.00;101720.06;1784985;80;21123;-51
2020/12/01 04:58:17;;;;;;;0.25;0.25;;;;;;;-1.28;100.00;101725.43;1785039;80;21159;-51
2020/12/01 05:01:00;;;;;;;0.78;0.72;;;;;;;-1.29;100.00;101728.59;1784971;80;20961;-51
2020/12/01 05:03:54;;;;;;;0.10;0.10;;;;;;;-1.30;100.00;101725.08;1788467;78;21122;-51
2020/12/01 05:06:53;;;;;;;0.00;0.00;;;;;;;-1.31;100.00;101726.61;1767400;80;21099;-50
2020/12/01 05:09:24;;;;;;;0.13;0.13;;;;;;;-1.30;100.00;101726.42;1786364;80;21572;-51
2020/12/01 05:11:58;;;;;;;0.10;0.10;;;;;;;-1.28;100.00;101724.09;1775448;80;21831;-51
2020/12/01 05:14:42;;;;;;;0.00;0.00;;;;;;;-1.31;100.00;101731.97;1787512;80;21151;-51
2020/12/01 05:17:25;;;;;;;1.20;0.25;;;;;;;-1.29;100.00;101728.59;1787175;80;21525;-51
2020/12/01 05:19:52;;;;;;;0.00;0.00;;;;;;;-1.29;100.00;101727.25;1778758;78;21538;-52
2020/12/01 05:22:20;;;;;;;0.10;0.10;;;;;;;-1.30;100.00;101730.44;1750057;81;21178;-52
2020/12/01 05:24:50;;;;;;;1.65;0.47;;;;;;;-1.30;100.00;101734.47;1720089;82;21572;-51
2020/12/01 05:27:32;;;;;;;0.20;0.20;;;;;;;-1.26;100.00;101732.78;1752883;81;21515;-52
2020/12/01 05:30:23;;;;;;;;;;;;;;;-1.27;100.00;101721.22;1752135;81;21621;-52
2020/12/01 05:33:02;;;;;;;0.00;0.00;;;;;;;-1.26;100.00;101722.05;1761460;80;20240;-51
2020/12/01 05:35:32;;;;;;;0.55;0.20;;;;;;;-1.25;100.00;101725.08;1758331;80;21513;-50
2020/12/01 05:38:04;;;;;;;1.07;1.07;;;;;;;-1.25;100.00;101719.20;1753551;80;21135;-52
2020/12/01 05:40:34;;;;;;;0.00;0.00;;;;;;;-1.26;100.00;101716.20;1782572;80;21628;-51
2020/12/01 05:43:02;;;;;;;0.20;0.20;;;;;;;-1.24;100.00;101722.72;1802256;79;21912;-51
2020/12/01 05:45:35;;;;;;;2.20;0.53;;;;;;;-1.25;100.00;101714.35;1783644;80;21080;-51
2020/12/01 05:48:30;;;;;;;0.50;0.50;;;;;;;-1.25;100.00;101719.20;1781435;80;21145;-50
2020/12/01 05:51:09;;;;;;;0.90;0.90;;;;;;;-1.26;100.00;101718.89;1798512;79;21154;-51
2020/12/01 05:53:36;;;;;;;0.00;0.00;;;;;;;-1.26;100.00;101717.55;1775836;80;21180;-49
2020/12/01 05:56:17;;;;;;;0.42;0.25;;;;;;;-1.26;100.00;101721.57;1757584;80;21576;-49
2020/12/01 05:58:50;;;;;;;0.53;0.53;;;;;;;-1.26;100.00;101716.69;1757363;80;21454;-52
2020/12/01 06:01:17;;;;;;;0.10;0.10;;;;;;;-1.25;100.00;101730.45;1753986;81;21161;-51
2020/12/01 06:04:07;;;;;;;0.68;0.68;;;;;;;-1.24;100.00;101732.11;1757080;80;21150;-51
2020/12/01 06:07:07;;;;;;;0.10;0.10;;;;;;;-1.25;100.00;101731.28;1756099;81;21155;-51
2020/12/01 06:10:01;;;;;;;0.30;0.30;;;;;;;-1.25;100.00;101727.25;1756164;81;21199;-51
2020/12/01 06:12:41;;;;;;;1.07;0.25;;;;;;;-1.23;100.00;101732.45;1756152;81;21147;-51
2020/12/01 06:15:16;;;;;;;0.10;0.10;;;;;;;-1.22;100.00;101735.46;1756680;80;21111;-49
2020/12/01 06:18:06;;;;;;;0.00;0.00;;;;;;;-1.23;100.00;101735.14;1784148;80;21107;-49
2020/12/01 06:20:42;;;;;;;0.15;0.15;;;;;;;-1.21;100.00;101734.44;1752966;81;21142;-48
2020/12/01 06:23:38;;;;;;;0.37;0.37;;;;;;;-1.21;100.00;101738.47;1761591;79;21553;-51
2020/12/01 06:26:52;;;;;;;0.57;0.57;;;;;;;-1.22;100.00;101732.27;1752246;80;21139;-50
2020/12/01 06:30:01;;;;;;;0.00;0.00;;;;;;;-1.20;100.00;101736.14;1768128;81;21142;-49
2020/12/01 06:32:40;;;;;;;2.37;0.55;;;;;;;-1.20;100.00;101730.77;1673756;85;21190;-50
2020/12/01 06:36:12;;;;;;;0.10;0.10;;;;;;;-1.16;100.00;101733.45;1833138;76;29556;-48
2020/12/01 06:39:17;;;;;;;0.47;0.47;;;;;;;-1.20;100.00;101740.98;1786484;80;21666;-47
2020/12/01 06:41:50;;;;;;;0.25;0.20;;;;;;;-1.19;100.00;101735.11;1786193;80;21495;-49
2020/12/01 06:44:20;;;;;;;0.75;0.75;;;;;;;-1.18;100.00;101738.98;1782853;78;21153;-50
2020/12/01 06:46:53;;;;;;;0.00;0.00;;;;;;;-1.17;100.00;101743.84;1782309;80;21589;-50
2020/12/01 06:49:27;;;;;;;0.10;0.10;;;;;;;-1.16;100.00;101740.16;1781914;80;21134;-50
2020/12/01 06:51:59;;;;;;;0.10;0.10;;;;;;;-1.15;100.00;101744.50;1782180;80;21841;-48
2020/12/01 06:54:26;;;;;;;0.55;0.45;;;;;;;-1.14;100.00;101744.83;1720900;83;21036;-48
2020/12/01 06:57:06;;;;;;;0.40;0.40;;;;;;;-1.13;100.00;101749.20;1724876;83;21166;-48
2020/12/01 06:59:33;;;;;;;0.10;0.10;;;;;;;-1.12;100.00;101744.16;1725040;83;21572;-49
2020/12/01 07:02:24;;;;;;;0.17;0.17;;;;;;;-1.12;100.00;101745.50;1694924;83;21147;-50
2020/12/01 07:05:06;;;;;;;0.33;0.33;;;;;;;-1.12;100.00;101745.50;1697004;83;21151;-50
2020/12/01 07:07:36;;;;;;;0.30;0.30;;;;;;;-1.10;100.00;101740.30;1684527;84;21151;-51
2020/12/01 07:10:26;;;;;;;0.35;0.35;;;;;;;-1.09;100.00;101742.47;1697138;83;21150;-49
2020/12/01 07:13:19;;;;;;;0.15;0.15;;;;;;;-1.08;100.00;101745.50;1699234;83;21126;-49
2020/12/01 07:15:49;;;;;;;0.23;0.23;;;;;;;-1.06;100.00;101737.27;1726171;82;21158;-49
2020/12/01 07:18:25;;;;;;;0.17;0.17;;;;;;;-1.02;100.00;101736.75;1722495;82;21599;-51
2020/12/01 07:21:16;;;;;;;0.20;0.20;;;;;;;-1.01;100.00;101749.17;1722430;83;21122;-51
2020/12/01 07:24:01;;;;;;;0.10;0.10;;;;;;;-0.99;100.00;101746.30;1732819;82;21141;-52
2020/12/01 07:26:37;;;;;;;1.30;0.37;;;;;;;-0.98;100.00;101755.53;1733011;82;21148;-51
2020/12/01 07:29:19;;;;;;;0.53;0.53;;;;;;;-0.95;100.00;101756.53;1702645;82;21149;-51
2020/12/01 07:31:46;;;;;;;1.20;1.20;;;;;;;-0.92;100.00;101758.86;1729821;82;21134;-50
2020/12/01 07:34:26;;;;;;;0.10;0.10;;;;;;;-0.91;100.00;101749.81;1743554;81;21141;-51
2020/12/01 07:37:33;;;;;;;0.00;0.00;;;;;;;-0.89;100.00;101758.55;1739723;81;21228;-51
2020/12/01 07:40:01;;;;;;;0.10;0.10;;;;;;;-0.88;100.00;101758.86;1731264;81;21555;-53
2020/12/01 07:42:31;;;;;;;0.13;0.13;;;;;;;-0.88;100.00;101760.20;1787964;80;21107;-51
2020/12/01 07:45:12;;;;;;;0.00;0.00;;;;;;;-0.86;100.00;101762.73;1781593;79;21414;-49
2020/12/01 07:47:40;;;;;;;0.00;0.00;;;;;;;-0.82;100.00;101757.33;1785895;80;21121;-51
2020/12/01 07:50:20;;;;;;;0.42;0.42;;;;;;;-0.81;100.00;101755.50;1750034;81;21135;-51
2020/12/01 07:52:46;;;;;;;0.65;0.65;;;;;;;-0.81;100.00;101755.00;1728904;81;21158;-51
2020/12/01 07:55:40;;;;;;;2.20;0.65;;;;;;;-0.79;100.00;101755.66;1734148;82;21159;-52
2020/12/01 07:58:19;;;;;;;0.35;0.30;;;;;;;-0.75;100.00;101758.83;1745886;81;21125;-49
2020/12/01 08:01:00;;;;;;;0.15;0.15;;;;;;;-0.76;100.00;101757.16;1707160;83;21201;-51
2020/12/01 08:03:34;;;;;;;0.33;0.33;;;;;;;-0.78;100.00;101758.67;1775177;80;21130;-51
2020/12/01 08:06:09;;;;;;;0.00;0.00;;;;;;;-0.79;100.00;101757.48;1759747;79;21549;-52
2020/12/01 08:08:40;;;;;;;1.77;1.67;;;;;;;-0.77;100.00;101759.50;1778056;80;21066;-51
2020/12/01 08:11:12;;;;;;;6.35;1.27;;;;;;;-0.75;100.00;101760.17;1786758;79;21158;-51
2020/12/01 08:13:41;;;;;;;0.57;0.53;;;;;;;-0.75;100.00;101762.85;1784821;79;21206;-49
2020/12/01 08:16:18;;;;;;;1.10;1.02;;;;;;;-0.74;100.00;101765.37;1682354;82;21138;-51
2020/12/01 08:18:46;;;;;;;0.10;0.10;;;;;;;-0.73;100.00;101760.84;1727689;83;21159;-51
2020/12/01 08:21:35;;;;;;;0.30;0.30;;;;;;;-0.72;100.00;101766.05;1766868;80;21101;-51
2020/12/01 08:24:09;;;;;;;0.68;0.68;;;;;;;-0.70;100.00;101761.31;1771536;80;21129;-50
2020/12/01 08:26:37;;;;;;;0.23;0.23;;;;;;;-0.69;100.00;101760.33;1769011;80;21658;-53
2020/12/01 08:29:26;;;;;;;0.00;0.00;;;;;;;-0.69;100.00;101758.16;1761756;80;21138;-52
2020/12/01 08:32:13;;;;;;;0.60;0.45;;;;;;;-0.70;100.00;101751.09;1781719;80;21130;-50
2020/12/01 08:34:51;;;;;;;10.63;1.70;;;;;;;-0.68;100.00;101747.73;1759949;80;21157;-52
2020/12/01 08:37:46;;;;;;;0.10;0.10;;;;;;;-0.66;100.00;101747.05;1779023;79;21114;-53
2020/12/01 08:40:36;;;;;;;0.88;0.85;;;;;;;-0.64;100.00;101747.73;1724651;82;21204;-51
2020/12/01 08:43:27;;;;;;;0.25;0.25;;;;;;;-0.62;100.00;101747.02;1784663;79;21133;-53
2020/12/01 08:46:17;;;;;;;0.40;0.35;;;;;;;-0.60;100.00;101741.48;1739552;81;21394;-51
2020/12/01 08:49:07;;;;;;;1.02;0.65;;;;;;;-0.54;100.00;101751.03;1763235;81;21401;-51
2020/12/01 08:51:53;;;;;;;1.75;0.75;;;;;;;-0.48;100.00;101735.55;1884615;76;29592;-52
2020/12/01 08:54:27;;;;;;;0.20;0.20;;;;;;;-0.51;100.00;101738.59;1825275;77;21083;-52
2020/12/01 08:57:14;;;;;;;0.20;0.20;;;;;;;-0.51;100.00;101729.20;1845502;77;21657;-52
2020/12/01 08:59:55;;;;;;;0.80;0.80;;;;;;;-0.51;100.00;101731.88;1848195;77;21111;-50
2020/12/01 09:02:22;;;;;;;0.03;0.03;;;;;;;-0.52;100.00;101726.20;1793796;78;21146;-53
2020/12/01 09:04:58;;;;;;;0.62;0.55;;;;;;;-0.53;100.00;101728.53;1827389;75;21102;-52
2020/12/01 09:07:30;;;;;;;0.28;0.28;;;;;;;-0.50;100.00;101728.69;1842804;75;21576;-53
2020/12/01 09:10:22;;;;;;;0.33;0.30;;;;;;;-0.51;100.00;101725.68;1829856;75;21457;-52
2020/12/01 09:19:06;;;;;;;0.42;0.35;;;;;;;-0.43;100.00;101718.92;1818136;76;29097;-53
2020/12/01 09:24:00;;;;;;;0.57;0.57;;;;;;;-0.44;100.00;101722.12;1769876;80;21184;-53
2020/12/01 09:26:28;;;;;;;0.60;0.20;;;;;;;-0.42;100.00;101718.41;1787745;78;21138;-53
2020/12/01 09:28:55;;;;;;;0.20;0.20;;;;;;;-0.40;100.00;101713.70;1799531;78;21114;-54
2020/12/01 09:31:25;;;;;;;0.00;0.00;;;;;;;-0.40;100.00;101706.98;1815677;78;21505;-55
2020/12/01 09:33:55;;;;;;;0.25;0.25;;;;;;;-0.35;100.00;101711.32;1810094;78;21098;-56
2020/12/01 09:36:24;;;;;;;0.55;0.55;;;;;;;-0.33;100.00;101704.76;1810585;78;21161;-56
2020/12/01 09:38:51;;;;;;;0.10;0.10;;;;;;;-0.31;100.00;101712.66;1749347;81;21146;-56
2020/12/01 09:41:21;;;;;;;0.10;0.10;;;;;;;-0.32;100.00;101714.98;1726966;81;21586;-57
2020/12/01 09:46:41;;;;;;;0.30;0.30;;;;;;;-0.29;100.00;101705.26;1815820;76;29087;-57
2020/12/01 09:49:03;;;;;;;0.20;0.20;;;;;;;-0.33;100.00;101705.27;1785357;80;21152;-57
2020/12/01 09:51:31;;;;;;;0.17;0.17;;;;;;;-0.32;100.00;101701.56;1785980;80;21169;-57
2020/12/01 09:54:28;;;;;;;0.40;0.20;;;;;;;-0.31;100.00;101703.25;1786243;78;21631;-57
2020/12/01 09:56:55;;;;;;;1.10;0.75;;;;;;;-0.30;100.00;101697.69;1799757;78;21119;-57
2020/12/01 10:13:11;;;;;;;0.90;0.35;;;;;;;-0.15;100.00;101685.66;1754989;81;21647;-59
2020/12/01 10:21:35;;;;;;;0.40;0.40;;;;;;;-0.13;100.00;101683.64;1768885;80;21109;-55
2020/12/01 10:34:51;;;;;;;0.00;0.00;;;;;;;-0.07;100.00;101673.54;1869533;76;29547;-55
2020/12/01 10:37:16;;;;;;;0.00;0.00;;;;;;;-0.13;100.00;101672.89;1822696;77;21675;-56
2020/12/01 10:39:43;;;;;;;0.10;0.10;;;;;;;-0.13;100.00;101675.58;1820779;78;21119;-54
2020/12/01 10:42:11;;;;;;;0.57;0.57;;;;;;;-0.14;100.00;101672.58;1820763;78;21110;-54
2020/12/01 10:44:39;;;;;;;0.47;0.47;;;;;;;-0.15;100.00;101677.61;1820518;78;21651;-53
2020/12/01 10:47:07;;;;;;;1.42;0.42;;;;;;;-0.16;100.00;101671.92;1820739;78;21154;-56
2020/12/01 10:49:34;;;;;;;1.72;0.93;;;;;;;-0.14;100.00;101676.61;1820691;78;21556;-54
2020/12/01 10:52:03;;;;;;;0.93;0.93;;;;;;;-0.13;100.00;101676.09;1844186;77;21134;-55
2020/12/01 10:54:31;;;;;;;1.00;0.98;;;;;;;-0.14;100.00;101677.95;1837353;77;21514;-57
2020/12/01 10:56:58;;;;;;;0.95;0.95;;;;;;;-0.13;100.00;101678.27;1820631;78;21564;-56
2020/12/01 10:59:26;;;;;;;0.28;0.28;;;;;;;-0.12;100.00;101677.27;1824858;77;21123;-56
2020/12/01 11:01:54;;;;;;;0.30;0.30;;;;;;;-0.10;100.00;101678.42;1776313;80;21139;-56
2020/12/01 11:04:21;;;;;;;0.10;0.10;;;;;;;-0.08;100.00;101680.42;1780583;80;21158;-56
2020/12/01 11:06:49;;;;;;;0.47;0.30;;;;;;;-0.02;100.00;101677.86;1773032;80;21130;-56
2020/12/01 11:09:17;;;;;;;0.23;0.23;;;;;;;0.03;100.00;101680.53;1784926;80;21139;-55
2020/12/01 11:11:45;;;;;;;0.95;0.95;;;;;;;0.05;100.00;101677.13;1759057;80;21127;-56
2020/12/01 11:14:12;;;;;;;1.85;1.10;;;;;;;0.07;100.00;101671.07;1773524;80;21609;-58
2020/12/01 11:16:40;;;;;;;3.27;2.08;;;;;;;0.09;100.00;101677.94;1769244;79;21138;-57
2020/12/01 11:19:07;;;;;;;0.90;0.82;;;;;;;0.11;100.00;101677.77;1756645;80;21147;-56
2020/12/01 11:21:35;;;;;;;0.78;0.78;;;;;;;0.12;100.00;101675.40;1753793;81;21576;-56
2020/12/01 11:24:04;;;;;;;0.10;0.10;;;;;;;0.13;100.00;101669.02;1757459;80;21153;-56
2020/12/01 11:26:31;;;;;;;2.05;1.02;;;;;;;0.12;100.00;101668.67;1778442;79;21108;-57
2020/12/01 11:28:59;;;;;;;1.77;1.67;;;;;;;0.12;100.00;101664.64;1763810;79;21213;-57
2020/12/01 11:31:26;;;;;;;0.20;0.20;;;;;;;0.12;100.00;101675.40;1768021;80;21140;-54
2020/12/01 11:34:07;;;;;;;0.82;0.82;;;;;;;0.11;100.00;101671.05;1763023;80;21186;-54
2020/12/01 11:36:35;;;;;;;0.33;0.33;;;;;;;0.12;100.00;101673.54;1750992;81;21476;-54
2020/12/01 11:39:05;;;;;;;1.70;1.42;;;;;;;0.15;100.00;101670.52;1790964;78;21585;-55
2020/12/01 11:41:33;;;;;;;0.57;0.57;;;;;;;0.15;100.00;101669.69;1760593;80;21165;-56
2020/12/01 11:44:01;;;;;;;1.02;0.82;;;;;;;0.14;100.00;101670.69;1790754;80;21177;-57
2020/12/01 11:46:28;;;;;;;0.70;0.55;;;;;;;0.15;100.00;101672.38;1773142;80;21148;-55
2020/12/01 11:49:01;;;;;;;1.90;1.80;;;;;;;0.17;100.00;101671.66;1780810;79;21500;-57
2020/12/01 11:51:25;;;;;;;2.92;0.90;;;;;;;0.16;100.00;101671.34;1762489;80;21127;-57
2020/12/01 11:53:52;;;;;;;0.08;0.08;;;;;;;0.15;100.00;101661.11;1787219;80;21119;-57
2020/12/01 11:56:20;;;;;;;0.65;0.65;;;;;;;0.18;100.00;101663.94;1790677;80;21195;-57
2020/12/01 11:58:47;;;;;;;1.20;1.20;;;;;;;0.20;100.00;101661.91;1791618;78;21470;-57
2020/12/01 12:01:16;;;;;;;0.30;0.30;;;;;;;0.18;100.00;101667.97;1765210;80;21128;-55
2020/12/01 12:03:44;;;;;;;0.53;0.53;;;;;;;0.15;100.00;101662.45;1774709;80;21147;-55
2020/12/01 12:06:11;;;;;;;0.30;0.30;;;;;;;0.14;100.00;101660.76;1758837;81;21174;-54
2020/12/01 12:08:40;;;;;;;0.00;0.00;;;;;;;0.16;100.00;101661.42;1759322;80;21164;-55
2020/12/01 12:11:07;;;;;;;2.83;1.57;;;;;;;0.18;100.00;101661.25;1776381;80;21184;-55
2020/12/01 12:13:35;;;;;;;0.00;0.00;;;;;;;0.16;100.00;101666.80;1750403;81;21179;-54
2020/12/01 12:16:02;;;;;;;2.12;1.77;;;;;;;0.16;100.00;101660.59;1758672;81;21162;-55
2020/12/01 12:18:30;;;;;;;0.70;0.60;;;;;;;0.15;100.00;101664.31;1763750;80;21166;-56
2020/12/01 12:20:57;;;;;;;0.47;0.47;;;;;;;0.16;100.00;101668.66;1762203;81;21146;-55
2020/12/01 12:23:25;;;;;;;4.22;1.70;;;;;;;0.15;100.00;101667.00;1790641;80;21482;-54
2020/12/01 12:25:52;;;;;;;0.20;0.20;;;;;;;0.14;100.00;101662.11;1781358;80;21095;-55
2020/12/01 12:28:21;;;;;;;0.88;0.82;;;;;;;0.15;100.00;101669.69;1781675;80;21152;-55
2020/12/01 12:30:49;;;;;;;2.10;1.90;;;;;;;0.13;100.00;101667.16;1750549;81;21147;-54
2020/12/01 12:33:16;;;;;;;0.62;0.62;;;;;;;0.13;100.00;101671.71;1753267;80;21603;-56